Time;durP1;ratioP1;P1;durP2;ratioP2;P2;SDS_P1;SDS_P2;PMS_P1;PMS_P2;Temp;Humidity;BMP_temperature;BMP_pressure;BME280_temperature;BME280_humidity;BME280_pressure;Samples;Min_cycle;Max_cycle;Signal;HPM_P1;HPM_P2
2021/03/25 00:00:06;;;;;;;44.08;32.60;;;;;;;;;;5107099;28;20202;-71
2021/03/25 00:02:32;;;;;;;49.22;31.92;;;;;;;;;;5093455;28;20191;-72
2021/03/25 00:04:58;;;;;;;51.40;32.40;;;;;;;;;;5093015;28;20223;-72
2021/03/25 00:07:24;;;;;;;51.58;33.15;;;;;;;;;;5093447;28;20523;-72
2021/03/25 00:09:50;;;;;;;55.33;34.10;;;;;;;;;;5093433;28;20262;-73
2021/03/25 00:12:16;;;;;;;47.85;34.85;;;;;;;;;;5093247;28;20425;-73
2021/03/25 00:14:42;;;;;;;53.97;35.65;;;;;;;;;;5092979;28;20268;-73
2021/03/25 00:17:08;;;;;;;56.50;36.15;;;;;;;;;;5092960;28;20193;-74
2021/03/25 00:19:34;;;;;;;84.30;41.78;;;;;;;;;;5093294;28;20182;-74
2021/03/25 00:22:00;;;;;;;53.38;36.63;;;;;;;;;;5093053;28;20175;-73
2021/03/25 00:24:26;;;;;;;57.90;40.45;;;;;;;;;;5106389;28;20199;-74
2021/03/25 00:26:52;;;;;;;58.90;39.30;;;;;;;;;;5093080;28;20270;-73
2021/03/25 00:29:18;;;;;;;58.87;40.07;;;;;;;;;;5102879;28;20265;-73
2021/03/25 00:31:45;;;;;;;68.63;42.53;;;;;;;;;;5090579;28;20425;-73
2021/03/25 00:34:12;;;;;;;59.55;39.20;;;;;;;;;;5095212;28;20207;-74
2021/03/25 00:36:38;;;;;;;64.75;40.78;;;;;;;;;;5097367;28;20183;-74
2021/03/25 00:39:08;;;;;;;67.95;39.65;;;;;;;;;;5109671;28;20179;-75
2021/03/25 00:41:35;;;;;;;75.88;41.58;;;;;;;;;;5095873;28;20199;-74
2021/03/25 00:44:01;;;;;;;66.88;41.63;;;;;;;;;;5113250;28;20174;-74
2021/03/25 00:46:27;;;;;;;77.03;43.22;;;;;;;;;;5105213;28;20183;-73
2021/03/25 00:48:53;;;;;;;76.28;43.70;;;;;;;;;;5112074;28;20245;-74
2021/03/25 00:51:19;;;;;;;64.90;39.60;;;;;;;;;;5095888;28;20616;-73
2021/03/25 00:53:45;;;;;;;59.00;38.58;;;;;;;;;;5095457;28;20917;-75
2021/03/25 00:56:11;;;;;;;81.07;44.03;;;;;;;;;;5095874;28;20187;-73
2021/03/25 00:58:37;;;;;;;76.13;44.13;;;;;;;;;;5095879;28;20252;-73
2021/03/25 01:01:07;;;;;;;72.90;43.38;;;;;;;;;;5095774;28;20221;-74
2021/03/25 01:03:34;;;;;;;68.15;43.50;;;;;;;;;;5095093;28;20183;-73
2021/03/25 01:06:00;;;;;;;73.75;44.20;;;;;;;;;;5094172;28;20219;-74
2021/03/25 01:08:26;;;;;;;80.38;45.08;;;;;;;;;;5094622;28;20671;-73
2021/03/25 01:10:58;;;;;;;69.03;44.45;;;;;;;;;;5108260;28;20223;-73
2021/03/25 01:13:24;;;;;;;70.00;43.85;;;;;;;;;;5115155;28;20178;-75
2021/03/25 01:15:50;;;;;;;81.53;44.80;;;;;;;;;;5094778;28;20316;-74
2021/03/25 01:18:16;;;;;;;75.32;45.78;;;;;;;;;;5103195;28;20658;-73
2021/03/25 01:20:43;;;;;;;72.55;44.90;;;;;;;;;;5101841;27;20636;-74
2021/03/25 01:23:09;;;;;;;81.43;44.70;;;;;;;;;;5101875;28;20173;-74
2021/03/25 01:25:36;;;;;;;85.78;47.72;;;;;;;;;;5102695;28;20708;-74
2021/03/25 01:28:04;;;;;;;77.28;45.92;;;;;;;;;;5095231;28;20302;-76
2021/03/25 01:30:31;;;;;;;79.47;47.17;;;;;;;;;;5095080;28;20187;-74
2021/03/25 01:32:58;;;;;;;82.07;48.78;;;;;;;;;;5081384;28;20171;-75
2021/03/25 01:35:25;;;;;;;82.05;48.83;;;;;;;;;;5094994;28;20552;-75
2021/03/25 01:37:51;;;;;;;86.50;49.30;;;;;;;;;;5103863;28;20315;-73
2021/03/25 01:40:26;;;;;;;79.07;45.30;;;;;;;;;;5108058;28;20179;-75
2021/03/25 01:43:05;;;;;;;79.07;47.70;;;;;;;;;;5074452;28;20175;-73
2021/03/25 01:45:31;;;;;;;87.22;47.92;;;;;;;;;;5091242;28;20205;-73
2021/03/25 01:47:58;;;;;;;89.15;46.95;;;;;;;;;;5094320;28;20191;-74
2021/03/25 01:50:24;;;;;;;80.28;48.30;;;;;;;;;;5103948;28;20183;-75
2021/03/25 01:53:09;;;;;;;88.18;49.05;;;;;;;;;;5093991;28;20581;-75
2021/03/25 01:55:47;;;;;;;100.95;51.75;;;;;;;;;;5094574;28;20639;-72
2021/03/25 01:58:22;;;;;;;78.22;48.03;;;;;;;;;;5094455;28;20175;-73
2021/03/25 02:01:06;;;;;;;92.97;49.53;;;;;;;;;;5096568;28;20509;-72
2021/03/25 02:03:38;;;;;;;87.07;46.38;;;;;;;;;;5112143;28;20182;-72
2021/03/25 02:06:15;;;;;;;79.68;45.40;;;;;;;;;;5101464;28;20207;-74
2021/03/25 02:08:47;;;;;;;77.35;44.63;;;;;;;;;;5082208;28;20252;-75
2021/03/25 02:11:13;;;;;;;67.70;45.58;;;;;;;;;;5094500;28;20232;-72
2021/03/25 02:13:57;;;;;;;77.77;46.70;;;;;;;;;;5094821;28;20175;-73
2021/03/25 02:16:29;;;;;;;71.85;42.85;;;;;;;;;;5096197;28;20415;-73
2021/03/25 02:19:00;;;;;;;81.47;46.40;;;;;;;;;;5114543;28;20178;-74
2021/03/25 02:21:32;;;;;;;71.95;43.85;;;;;;;;;;5101964;28;20175;-75
2021/03/25 02:24:04;;;;;;;73.00;43.80;;;;;;;;;;5093888;28;20581;-75
2021/03/25 02:26:32;;;;;;;70.53;43.00;;;;;;;;;;5094351;28;20172;-72
2021/03/25 02:29:10;;;;;;;69.80;44.20;;;;;;;;;;5095095;28;20203;-74
2021/03/25 02:31:39;;;;;;;71.78;45.75;;;;;;;;;;5114716;27;20253;-73
2021/03/25 02:34:09;;;;;;;63.65;40.70;;;;;;;;;;5114337;28;20170;-72
2021/03/25 02:36:43;;;;;;;67.35;43.35;;;;;;;;;;5105927;28;20225;-73
2021/03/25 02:39:11;;;;;;;66.20;41.45;;;;;;;;;;5094015;28;20158;-73
2021/03/25 02:41:40;;;;;;;63.70;40.15;;;;;;;;;;5092671;28;20536;-73
2021/03/25 02:44:10;;;;;;;71.47;42.53;;;;;;;;;;5093414;28;20508;-72
2021/03/25 02:46:39;;;;;;;68.75;42.92;;;;;;;;;;5093523;28;20180;-75
2021/03/25 02:49:08;;;;;;;63.95;41.03;;;;;;;;;;5093599;28;20592;-74
2021/03/25 02:51:53;;;;;;;70.80;43.33;;;;;;;;;;5093649;28;20164;-75
2021/03/25 02:54:19;;;;;;;65.85;41.78;;;;;;;;;;5103440;28;20323;-74
2021/03/25 02:56:57;;;;;;;61.53;40.42;;;;;;;;;;5111626;28;20162;-76
2021/03/25 02:59:27;;;;;;;62.08;39.33;;;;;;;;;;5094139;28;20167;-75
2021/03/25 03:01:56;;;;;;;62.88;41.03;;;;;;;;;;5094365;28;20160;-76
2021/03/25 03:04:26;;;;;;;63.05;39.75;;;;;;;;;;5073220;28;20234;-74
2021/03/25 03:06:54;;;;;;;69.10;43.25;;;;;;;;;;5088725;28;20560;-72
2021/03/25 03:09:29;;;;;;;67.15;41.92;;;;;;;;;;5093751;28;20633;-73
2021/03/25 03:11:58;;;;;;;63.80;42.72;;;;;;;;;;5093710;28;20170;-75
2021/03/25 03:14:43;;;;;;;67.55;43.15;;;;;;;;;;5094737;28;20548;-73
2021/03/25 03:17:27;;;;;;;67.63;41.47;;;;;;;;;;5114111;28;20159;-74
2021/03/25 03:19:58;;;;;;;67.97;43.88;;;;;;;;;;5114083;28;20245;-73
2021/03/25 03:22:24;;;;;;;75.20;44.53;;;;;;;;;;5096853;28;20167;-72
2021/03/25 03:24:51;;;;;;;63.40;43.08;;;;;;;;;;5093465;28;20585;-71
2021/03/25 03:27:17;;;;;;;66.43;43.20;;;;;;;;;;5113438;28;20207;-72
2021/03/25 03:29:45;;;;;;;66.83;44.17;;;;;;;;;;5120818;28;20181;-71
2021/03/25 03:32:18;;;;;;;76.93;43.33;;;;;;;;;;5133286;28;20371;-73
2021/03/25 03:34:45;;;;;;;74.47;45.53;;;;;;;;;;5119682;28;20195;-72
2021/03/25 03:37:17;;;;;;;72.18;44.95;;;;;;;;;;5126344;28;20178;-72
2021/03/25 03:39:44;;;;;;;69.70;44.88;;;;;;;;;;5113738;28;20171;-72
2021/03/25 03:42:18;;;;;;;72.35;45.65;;;;;;;;;;5112995;28;20179;-73
2021/03/25 03:44:45;;;;;;;81.05;47.45;;;;;;;;;;5112410;28;20189;-71
2021/03/25 03:47:13;;;;;;;75.50;46.80;;;;;;;;;;5112654;28;20176;-71
2021/03/25 03:49:54;;;;;;;80.90;45.95;;;;;;;;;;5125026;28;20182;-72
2021/03/25 03:52:26;;;;;;;75.13;46.83;;;;;;;;;;5114008;28;20197;-72
2021/03/25 03:54:54;;;;;;;81.85;48.60;;;;;;;;;;5098668;28;20700;-73
2021/03/25 03:57:35;;;;;;;86.90;50.97;;;;;;;;;;5101649;28;20647;-74
2021/03/25 04:00:12;;;;;;;80.97;47.03;;;;;;;;;;5097518;28;20179;-75
2021/03/25 04:02:41;;;;;;;70.80;45.70;;;;;;;;;;5105230;28;20193;-73
2021/03/25 04:05:17;;;;;;;82.07;47.60;;;;;;;;;;5110761;28;20224;-74
2021/03/25 04:07:49;;;;;;;88.65;47.97;;;;;;;;;;5093296;28;20199;-72
2021/03/25 04:10:16;;;;;;;84.70;47.85;;;;;;;;;;5093075;28;20217;-73
2021/03/25 04:12:45;;;;;;;85.18;47.38;;;;;;;;;;5093019;28;20584;-72
2021/03/25 04:15:15;;;;;;;79.72;47.85;;;;;;;;;;5100784;28;20202;-73
2021/03/25 04:17:43;;;;;;;81.78;46.90;;;;;;;;;;5113478;28;20521;-72
2021/03/25 04:20:11;;;;;;;75.20;46.80;;;;;;;;;;5098604;28;20264;-74
2021/03/25 04:22:58;;;;;;;78.28;45.47;;;;;;;;;;5092972;28;20191;-74
2021/03/25 04:25:29;;;;;;;77.22;48.63;;;;;;;;;;5104936;28;20291;-73
2021/03/25 04:28:08;;;;;;;73.68;44.78;;;;;;;;;;5113170;27;20217;-74
2021/03/25 04:30:43;;;;;;;79.50;48.03;;;;;;;;;;5105036;28;20528;-72
2021/03/25 04:33:10;;;;;;;80.80;48.00;;;;;;;;;;5112071;28;20179;-72
2021/03/25 04:35:36;;;;;;;80.38;46.70;;;;;;;;;;5109039;28;20229;-73
2021/03/25 04:38:03;;;;;;;78.70;46.05;;;;;;;;;;5103284;28;20184;-74
2021/03/25 04:40:31;;;;;;;80.65;46.92;;;;;;;;;;5109041;28;20174;-73
2021/03/25 04:42:58;;;;;;;74.55;45.88;;;;;;;;;;5108702;28;20564;-74
2021/03/25 04:45:42;;;;;;;86.05;49.78;;;;;;;;;;5099726;28;20212;-75
2021/03/25 04:48:12;;;;;;;79.97;46.65;;;;;;;;;;5097396;28;20264;-73
2021/03/25 04:50:39;;;;;;;63.88;37.70;;;;;;;;;;5096754;28;20517;-73
2021/03/25 04:53:07;;;;;;;66.60;40.80;;;;;;;;;;5095762;28;20179;-75
2021/03/25 04:55:36;;;;;;;74.15;44.15;;;;;;;;;;5102041;28;20244;-73
2021/03/25 04:58:05;;;;;;;82.00;45.75;;;;;;;;;;5099510;28;20559;-74
2021/03/25 05:00:33;;;;;;;68.32;43.47;;;;;;;;;;5082771;28;20551;-72
2021/03/25 05:03:03;;;;;;;61.95;41.35;;;;;;;;;;5103862;28;20217;-73
2021/03/25 05:05:31;;;;;;;64.13;42.67;;;;;;;;;;5101491;28;20222;-74
2021/03/25 05:08:05;;;;;;;64.78;43.58;;;;;;;;;;5095660;28;20693;-75
2021/03/25 05:10:39;;;;;;;58.50;40.95;;;;;;;;;;5095706;28;20178;-73
2021/03/25 05:13:06;;;;;;;63.92;41.50;;;;;;;;;;5112579;28;20249;-75
2021/03/25 05:15:34;;;;;;;66.43;44.08;;;;;;;;;;5096969;28;20256;-73
2021/03/25 05:18:23;;;;;;;69.30;42.45;;;;;;;;;;5099499;28;20257;-76
2021/03/25 05:21:01;;;;;;;64.88;42.28;;;;;;;;;;5100177;28;20167;-73
2021/03/25 05:23:32;;;;;;;65.32;42.80;;;;;;;;;;5095208;28;20186;-72
2021/03/25 05:26:05;;;;;;;71.25;43.60;;;;;;;;;;5095438;28;20297;-73
2021/03/25 05:28:33;;;;;;;69.90;41.20;;;;;;;;;;5106265;28;20190;-75
2021/03/25 05:31:01;;;;;;;65.05;42.53;;;;;;;;;;5099683;28;20179;-74
2021/03/25 05:33:29;;;;;;;65.15;42.05;;;;;;;;;;5094713;28;20167;-75
2021/03/25 05:35:59;;;;;;;59.17;38.03;;;;;;;;;;5099503;28;20222;-75
2021/03/25 05:38:25;;;;;;;68.53;40.35;;;;;;;;;;5106057;28;20536;-72
2021/03/25 05:40:54;;;;;;;64.38;40.13;;;;;;;;;;5093984;28;20232;-73
2021/03/25 05:43:23;;;;;;;68.78;42.25;;;;;;;;;;5094741;28;20182;-73
2021/03/25 05:46:01;;;;;;;70.35;40.85;;;;;;;;;;5114333;28;20198;-74
2021/03/25 05:48:32;;;;;;;69.32;41.83;;;;;;;;;;5097513;28;20195;-73
2021/03/25 05:51:04;;;;;;;62.55;38.97;;;;;;;;;;5103255;28;20183;-73
2021/03/25 05:53:35;;;;;;;62.67;39.83;;;;;;;;;;5094336;28;20532;-75
2021/03/25 05:56:11;;;;;;;64.18;41.05;;;;;;;;;;5104792;28;20194;-72
2021/03/25 05:58:48;;;;;;;62.53;38.13;;;;;;;;;;5110420;28;20174;-73
2021/03/25 06:01:20;;;;;;;62.72;40.53;;;;;;;;;;5106066;28;20179;-75
2021/03/25 06:03:58;;;;;;;62.75;40.83;;;;;;;;;;5081243;28;20178;-74
2021/03/25 06:06:32;;;;;;;61.70;40.45;;;;;;;;;;5097956;28;20191;-74
2021/03/25 06:09:06;;;;;;;69.53;41.88;;;;;;;;;;5094756;28;20198;-73
2021/03/25 06:11:37;;;;;;;61.28;39.55;;;;;;;;;;5097032;28;20231;-74
2021/03/25 06:14:21;;;;;;;69.00;41.55;;;;;;;;;;5108297;28;20178;-74
2021/03/25 06:17:07;;;;;;;58.92;38.47;;;;;;;;;;5088062;28;20175;-74
2021/03/25 06:19:55;;;;;;;65.85;40.10;;;;;;;;;;5093909;28;20183;-74
2021/03/25 06:22:25;;;;;;;67.05;38.63;;;;;;;;;;5087394;28;20580;-73
2021/03/25 06:25:02;;;;;;;71.30;39.10;;;;;;;;;;5080334;28;20285;-74
2021/03/25 06:27:38;;;;;;;67.13;39.35;;;;;;;;;;5093977;28;20688;-74
2021/03/25 06:30:18;;;;;;;65.70;38.03;;;;;;;;;;5093927;28;20569;-76
2021/03/25 06:32:59;;;;;;;63.55;40.15;;;;;;;;;;5098498;28;20257;-73
2021/03/25 06:35:32;;;;;;;63.25;38.67;;;;;;;;;;5101159;28;20253;-72
2021/03/25 06:38:03;;;;;;;57.05;38.00;;;;;;;;;;5101864;28;20265;-72
2021/03/25 06:40:47;;;;;;;53.05;34.50;;;;;;;;;;5098589;28;20183;-73
2021/03/25 06:43:16;;;;;;;56.28;37.08;;;;;;;;;;5093583;28;20190;-74
2021/03/25 06:45:55;;;;;;;62.78;37.50;;;;;;;;;;5108264;28;20198;-73
2021/03/25 06:48:35;;;;;;;58.78;38.97;;;;;;;;;;5100855;27;20227;-73
2021/03/25 06:51:06;;;;;;;59.30;39.17;;;;;;;;;;5084843;28;20203;-78
2021/03/25 06:53:33;;;;;;;59.20;37.67;;;;;;;;;;5093847;28;20172;-74
2021/03/25 06:56:07;;;;;;;62.42;40.40;;;;;;;;;;5082976;28;20270;-74
2021/03/25 06:58:37;;;;;;;55.90;32.78;;;;;;;;;;5098148;28;20606;-74
2021/03/25 07:01:07;;;;;;;64.60;38.85;;;;;;;;;;5101907;28;20174;-74
2021/03/25 07:03:33;;;;;;;61.88;36.40;;;;;;;;;;5098705;28;20535;-75
2021/03/25 07:06:02;;;;;;;57.17;36.35;;;;;;;;;;5104087;28;20568;-74
2021/03/25 07:08:31;;;;;;;69.93;38.67;;;;;;;;;;5100750;28;20214;-74
2021/03/25 07:10:58;;;;;;;64.18;38.47;;;;;;;;;;5093008;28;20194;-76
2021/03/25 07:13:42;;;;;;;61.72;36.80;;;;;;;;;;5083257;28;20171;-76
2021/03/25 07:16:09;;;;;;;62.67;36.28;;;;;;;;;;5095487;28;20227;-74
2021/03/25 07:18:38;;;;;;;63.17;36.20;;;;;;;;;;5099168;28;20592;-75
2021/03/25 07:21:19;;;;;;;64.40;35.67;;;;;;;;;;5093264;28;20179;-75
2021/03/25 07:23:45;;;;;;;52.53;32.85;;;;;;;;;;5093255;28;20175;-73
2021/03/25 07:26:23;;;;;;;45.35;27.67;;;;;;;;;;5112603;28;20596;-76
2021/03/25 07:28:59;;;;;;;44.95;28.92;;;;;;;;;;5099999;28;20202;-74
2021/03/25 07:31:30;;;;;;;50.78;31.50;;;;;;;;;;5093300;28;20175;-75
2021/03/25 07:33:56;;;;;;;49.15;30.73;;;;;;;;;;5092606;28;20159;-75
2021/03/25 07:36:22;;;;;;;47.63;28.95;;;;;;;;;;5092692;28;20171;-72
2021/03/25 07:38:48;;;;;;;51.08;31.42;;;;;;;;;;5109366;28;20174;-75
2021/03/25 07:41:25;;;;;;;49.60;29.95;;;;;;;;;;5107603;28;20188;-73
2021/03/25 07:44:01;;;;;;;48.30;30.55;;;;;;;;;;5078371;28;20179;-74
2021/03/25 07:46:48;;;;;;;56.80;33.20;;;;;;;;;;5075930;28;20186;-74
2021/03/25 07:49:14;;;;;;;52.33;32.50;;;;;;;;;;5091220;28;20217;-73
2021/03/25 07:51:57;;;;;;;64.82;35.17;;;;;;;;;;5089113;28;20296;-73
2021/03/25 07:54:29;;;;;;;52.22;31.17;;;;;;;;;;5082935;28;20202;-74
2021/03/25 07:56:58;;;;;;;51.38;29.95;;;;;;;;;;5092719;28;20186;-75
2021/03/25 07:59:43;;;;;;;51.25;31.90;;;;;;;;;;5092180;28;20183;-74
2021/03/25 08:02:24;;;;;;;50.75;31.33;;;;;;;;;;5101291;28;20175;-76
2021/03/25 08:04:50;;;;;;;49.85;29.67;;;;;;;;;;5094105;28;20210;-75
2021/03/25 08:07:16;;;;;;;48.17;30.15;;;;;;;;;;5088949;28;20251;-73
2021/03/25 08:09:42;;;;;;;45.42;28.15;;;;;;;;;;5088638;28;20548;-76
2021/03/25 08:12:08;;;;;;;49.47;29.80;;;;;;;;;;5088816;28;20180;-74
2021/03/25 08:14:36;;;;;;;49.92;31.08;;;;;;;;;;5092071;28;20203;-74
2021/03/25 08:17:13;;;;;;;50.05;30.10;;;;;;;;;;5111044;28;20623;-74
2021/03/25 08:19:44;;;;;;;46.78;29.30;;;;;;;;;;5098053;28;20182;-74
2021/03/25 08:22:36;;;;;;;48.97;31.70;;;;;;;;;;5092875;28;20585;-76
2021/03/25 08:25:06;;;;;;;51.28;32.47;;;;;;;;;;5093039;28;20286;-75
2021/03/25 08:27:35;;;;;;;47.75;30.38;;;;;;;;;;5106715;28;20194;-73
2021/03/25 08:30:19;;;;;;;44.13;29.75;;;;;;;;;;5102676;28;20171;-73
2021/03/25 08:33:04;;;;;;;42.10;28.80;;;;;;;;;;5108626;28;20172;-73
2021/03/25 08:35:33;;;;;;;47.67;29.00;;;;;;;;;;5097528;28;20673;-75
2021/03/25 08:38:02;;;;;;;48.03;29.83;;;;;;;;;;5099201;28;20332;-73
2021/03/25 08:40:49;;;;;;;43.17;27.50;;;;;;;;;;5093658;28;20642;-74
2021/03/25 08:43:19;;;;;;;41.15;26.92;;;;;;;;;;5099820;28;20271;-75
2021/03/25 08:45:50;;;;;;;48.60;28.70;;;;;;;;;;5091945;28;20207;-75
2021/03/25 08:48:16;;;;;;;46.97;28.90;;;;;;;;;;5096853;28;20218;-76
2021/03/25 08:50:42;;;;;;;46.13;28.25;;;;;;;;;;5092073;28;20188;-74
2021/03/25 08:53:23;;;;;;;45.60;31.13;;;;;;;;;;5091538;28;20172;-74
2021/03/25 08:55:50;;;;;;;46.72;31.88;;;;;;;;;;5080413;28;20449;-75
2021/03/25 08:58:21;;;;;;;48.05;33.63;;;;;;;;;;5093744;28;20266;-73
2021/03/25 09:00:49;;;;;;;49.15;31.85;;;;;;;;;;5112338;27;20187;-77
2021/03/25 09:03:25;;;;;;;46.13;30.42;;;;;;;;;;5106038;27;20277;-74
2021/03/25 09:05:54;;;;;;;40.95;29.05;;;;;;;;;;5092003;28;20287;-74
2021/03/25 09:08:21;;;;;;;45.03;30.02;;;;;;;;;;5103840;28;20655;-75
2021/03/25 09:10:50;;;;;;;40.67;29.75;;;;;;;;;;5107974;28;20174;-73
2021/03/25 09:13:20;;;;;;;41.30;29.00;;;;;;;;;;5094865;28;20214;-77
2021/03/25 09:15:46;;;;;;;39.90;27.48;;;;;;;;;;5090511;28;20286;-77
2021/03/25 09:18:17;;;;;;;41.85;29.35;;;;;;;;;;5093311;28;20552;-76
2021/03/25 09:20:47;;;;;;;46.58;30.10;;;;;;;;;;5091655;28;20210;-75
2021/03/25 09:23:40;;;;;;;47.30;29.05;;;;;;;;;;5090325;28;20178;-75
2021/03/25 09:26:09;;;;;;;43.67;28.30;;;;;;;;;;5093488;28;20580;-76
2021/03/25 09:28:58;;;;;;;51.28;38.33;;;;;;;;;;5090717;28;20239;-72
2021/03/25 09:31:25;;;;;;;42.63;29.33;;;;;;;;;;5089978;28;20597;-76
2021/03/25 09:33:51;;;;;;;38.42;28.80;;;;;;;;;;5090910;28;20176;-73
2021/03/25 09:36:17;;;;;;;41.65;29.15;;;;;;;;;;5091816;28;20636;-74
2021/03/25 09:39:03;;;;;;;36.28;27.70;;;;;;;;;;5086806;28;20184;-73
2021/03/25 09:41:29;;;;;;;36.35;28.05;;;;;;;;;;5100738;28;20260;-75
2021/03/25 09:44:17;;;;;;;32.77;26.27;;;;;;;;;;5100289;28;20220;-74
2021/03/25 09:46:43;;;;;;;30.67;25.90;;;;;;;;;;5098150;28;20416;-75
2021/03/25 09:49:28;;;;;;;32.90;26.73;;;;;;;;;;5100715;28;20818;-74
2021/03/25 09:52:13;;;;;;;30.50;27.17;;;;;;;;;;5089422;28;20978;-74
2021/03/25 09:54:41;;;;;;;30.00;26.33;;;;;;;;;;5096865;28;20562;-75
2021/03/25 09:57:22;;;;;;;29.40;25.93;;;;;;;;;;5091405;28;20918;-73
2021/03/25 09:59:48;;;;;;;29.67;26.57;;;;;;;;;;5091528;28;20524;-73
2021/03/25 10:02:14;;;;;;;30.13;25.27;;;;;;;;;;5090915;28;20495;-74
2021/03/25 10:04:40;;;;;;;31.03;27.73;;;;;;;;;;5091073;28;20492;-73
2021/03/25 10:07:13;;;;;;;30.20;27.00;;;;;;;;;;5091248;28;20417;-75
2021/03/25 10:09:48;;;;;;;32.20;28.90;;;;;;;;;;5091968;28;21287;-73
2021/03/25 10:12:34;;;;;;;31.47;28.37;;;;;;;;;;5091536;28;20421;-75
2021/03/25 10:15:00;;;;;;;30.90;27.80;;;;;;;;;;5093713;28;20424;-75
2021/03/25 10:17:45;;;;;;;29.17;25.90;;;;;;;;;;5104026;28;21270;-75
2021/03/25 10:20:13;;;;;;;28.80;26.00;;;;;;;;;;5091499;28;20420;-74
2021/03/25 10:22:39;;;;;;;28.50;25.70;;;;;;;;;;5090908;28;20449;-72
2021/03/25 10:25:07;;;;;;;29.33;26.27;;;;;;;;;;5090648;28;20432;-73
2021/03/25 10:27:38;;;;;;;30.30;27.40;;;;;;;;;;5083701;28;20458;-74
2021/03/25 10:30:21;;;;;;;28.73;25.60;;;;;;;;;;5086587;28;20771;-74
2021/03/25 10:32:47;;;;;;;27.40;24.50;;;;;;;;;;5090459;28;20474;-74
2021/03/25 10:35:22;;;;;;;27.93;24.97;;;;;;;;;;5091878;28;20524;-75
2021/03/25 10:37:50;;;;;;;26.07;23.33;;;;;;;;;;5090851;28;20475;-76
2021/03/25 10:40:16;;;;;;;25.03;22.63;;;;;;;;;;5091848;28;20417;-75
2021/03/25 10:42:44;;;;;;;22.50;20.30;;;;;;;;;;5091812;28;20485;-72
2021/03/25 10:45:15;;;;;;;24.10;21.73;;;;;;;;;;5090607;28;20449;-76
2021/03/25 10:47:45;;;;;;;21.73;19.53;;;;;;;;;;5104575;28;20906;-72
2021/03/25 10:50:18;;;;;;;24.27;22.13;;;;;;;;;;5077935;28;20431;-72
2021/03/25 10:52:45;;;;;;;19.60;17.90;;;;;;;;;;5092172;28;20422;-74
2021/03/25 10:55:27;;;;;;;20.50;18.60;;;;;;;;;;5093485;28;20656;-75
2021/03/25 10:57:53;;;;;;;20.10;18.07;;;;;;;;;;5093042;28;20433;-72
2021/03/25 11:00:37;;;;;;;21.13;19.23;;;;;;;;;;5089112;28;20437;-73
2021/03/25 11:03:17;;;;;;;20.30;18.50;;;;;;;;;;5089438;28;20437;-74
2021/03/25 11:05:51;;;;;;;22.43;20.23;;;;;;;;;;5090761;28;20449;-73
2021/03/25 11:08:30;;;;;;;19.67;18.00;;;;;;;;;;5092828;28;20472;-73
2021/03/25 11:10:57;;;;;;;19.93;17.90;;;;;;;;;;5103637;28;20437;-73
2021/03/25 11:13:25;;;;;;;18.77;16.87;;;;;;;;;;5089308;28;20432;-76
2021/03/25 11:15:59;;;;;;;20.63;18.77;;;;;;;;;;5089935;28;20892;-73
2021/03/25 11:18:28;;;;;;;18.97;17.17;;;;;;;;;;5089339;28;20420;-73
2021/03/25 11:20:54;;;;;;;18.70;17.00;;;;;;;;;;5076440;28;20496;-72
2021/03/25 11:23:21;;;;;;;18.67;16.87;;;;;;;;;;5089269;28;20433;-73
2021/03/25 11:25:47;;;;;;;17.97;16.27;;;;;;;;;;5075938;28;20441;-76
2021/03/25 11:28:18;;;;;;;18.97;16.93;;;;;;;;;;5089536;28;20493;-75
2021/03/25 11:30:48;;;;;;;19.47;17.47;;;;;;;;;;5089448;28;20830;-74
2021/03/25 11:33:24;;;;;;;20.10;18.17;;;;;;;;;;5102635;28;20435;-73
2021/03/25 11:35:50;;;;;;;18.00;16.30;;;;;;;;;;5077512;28;20859;-74
2021/03/25 11:38:16;;;;;;;19.73;17.63;;;;;;;;;;5089225;28;20520;-74
2021/03/25 11:40:44;;;;;;;19.87;17.97;;;;;;;;;;5089450;28;20425;-72
2021/03/25 11:43:12;;;;;;;18.90;17.00;;;;;;;;;;5090187;28;20424;-72
2021/03/25 11:45:38;;;;;;;18.83;16.50;;;;;;;;;;5090745;28;20536;-75
2021/03/25 11:48:15;;;;;;;18.57;16.63;;;;;;;;;;5089371;28;20480;-73
2021/03/25 11:50:41;;;;;;;19.10;17.10;;;;;;;;;;5099558;28;21191;-74
2021/03/25 11:53:24;;;;;;;19.43;17.43;;;;;;;;;;5106608;28;20428;-74
2021/03/25 11:55:53;;;;;;;18.00;15.67;;;;;;;;;;5093484;28;20503;-73
2021/03/25 11:58:21;;;;;;;18.47;15.57;;;;;;;;;;5093438;28;20466;-74
2021/03/25 12:00:56;;;;;;;17.97;15.50;;;;;;;;;;5093504;28;20748;-73
2021/03/25 12:03:27;;;;;;;18.00;16.20;;;;;;;;;;5080562;28;20420;-73
2021/03/25 12:05:53;;;;;;;17.47;15.57;;;;;;;;;;5093196;28;20460;-72
2021/03/25 12:08:19;;;;;;;15.83;14.27;;;;;;;;;;5091787;28;20771;-75
2021/03/25 12:10:45;;;;;;;16.77;15.00;;;;;;;;;;5087541;28;20418;-73
2021/03/25 12:13:12;;;;;;;15.97;14.37;;;;;;;;;;5104459;28;20409;-74
2021/03/25 12:15:39;;;;;;;15.60;13.83;;;;;;;;;;5092472;28;20486;-72
2021/03/25 12:18:06;;;;;;;15.40;13.80;;;;;;;;;;5093524;28;20422;-74
2021/03/25 12:20:34;;;;;;;14.63;13.17;;;;;;;;;;5113566;28;20417;-75
2021/03/25 12:23:05;;;;;;;14.90;13.27;;;;;;;;;;5098638;28;20452;-72
2021/03/25 12:25:31;;;;;;;16.00;13.93;;;;;;;;;;5100722;28;20452;-72
2021/03/25 12:27:58;;;;;;;16.63;14.80;;;;;;;;;;5096767;28;20456;-72
2021/03/25 12:30:24;;;;;;;15.47;13.83;;;;;;;;;;5099988;28;20455;-72
2021/03/25 12:32:51;;;;;;;16.70;14.10;;;;;;;;;;5093877;28;20415;-72
2021/03/25 12:35:19;;;;;;;15.57;13.87;;;;;;;;;;5081797;28;20471;-75
2021/03/25 12:37:48;;;;;;;16.00;14.30;;;;;;;;;;5094710;28;20778;-72
2021/03/25 12:40:15;;;;;;;14.93;13.40;;;;;;;;;;5113020;28;20849;-74
2021/03/25 12:42:41;;;;;;;15.83;14.13;;;;;;;;;;5105445;28;20531;-75
2021/03/25 12:45:08;;;;;;;15.87;12.00;;;;;;;;;;5101516;28;20493;-73
2021/03/25 12:47:34;;;;;;;12.70;11.43;;;;;;;;;;5096216;27;20406;-74
2021/03/25 12:50:01;;;;;;;12.73;11.53;;;;;;;;;;5092477;28;20448;-74
2021/03/25 12:52:27;;;;;;;13.17;11.73;;;;;;;;;;5092362;28;22021;-73
2021/03/25 12:54:53;;;;;;;11.93;10.70;;;;;;;;;;5089368;28;20445;-75
2021/03/25 12:57:21;;;;;;;12.60;11.30;;;;;;;;;;5089406;28;20424;-75
2021/03/25 12:59:47;;;;;;;13.20;11.53;;;;;;;;;;5090075;28;20482;-75
2021/03/25 13:02:13;;;;;;;11.77;10.50;;;;;;;;;;5092411;28;20427;-75
2021/03/25 13:04:40;;;;;;;12.40;10.97;;;;;;;;;;5095465;28;20460;-76
2021/03/25 13:07:06;;;;;;;12.60;10.33;;;;;;;;;;5098344;28;20466;-74
2021/03/25 13:09:32;;;;;;;11.90;10.30;;;;;;;;;;5090642;28;20969;-76
2021/03/25 13:12:28;;;;;;;11.70;10.37;;;;;;;;;;5090802;28;20417;-75
2021/03/25 13:14:54;;;;;;;10.97;9.87;;;;;;;;;;5087790;28;20447;-75
2021/03/25 13:17:20;;;;;;;12.43;11.17;;;;;;;;;;5109245;28;20518;-75
2021/03/25 13:19:46;;;;;;;12.60;11.37;;;;;;;;;;5090352;28;20748;-75
2021/03/25 13:22:12;;;;;;;12.10;10.90;;;;;;;;;;5091713;28;20452;-76
2021/03/25 13:24:38;;;;;;;12.30;11.10;;;;;;;;;;5104728;28;20429;-75
2021/03/25 13:27:05;;;;;;;13.50;11.40;;;;;;;;;;5091832;28;20831;-74
2021/03/25 13:29:31;;;;;;;13.17;11.67;;;;;;;;;;5104438;28;20503;-76
2021/03/25 13:31:57;;;;;;;12.20;10.90;;;;;;;;;;5104483;28;20412;-76
2021/03/25 13:34:23;;;;;;;11.80;10.60;;;;;;;;;;5090079;28;20456;-76
2021/03/25 13:36:49;;;;;;;11.70;10.60;;;;;;;;;;5091125;28;20445;-73
2021/03/25 13:39:15;;;;;;;13.30;11.73;;;;;;;;;;5091265;28;20449;-73
2021/03/25 13:41:41;;;;;;;11.63;10.50;;;;;;;;;;5091023;28;20849;-74
2021/03/25 13:44:07;;;;;;;11.53;10.33;;;;;;;;;;5090315;28;22100;-76
2021/03/25 13:46:33;;;;;;;13.10;11.80;;;;;;;;;;5093565;28;20430;-73
2021/03/25 13:48:59;;;;;;;12.10;10.80;;;;;;;;;;5097703;28;20520;-74
2021/03/25 13:51:25;;;;;;;12.37;11.07;;;;;;;;;;5090941;28;20421;-74
2021/03/25 13:53:52;;;;;;;14.70;12.03;;;;;;;;;;5090366;28;20801;-75
2021/03/25 13:56:18;;;;;;;13.93;11.43;;;;;;;;;;5104170;28;20413;-72
2021/03/25 13:58:44;;;;;;;12.90;10.90;;;;;;;;;;5111223;28;20420;-75
2021/03/25 14:01:11;;;;;;;13.60;10.87;;;;;;;;;;5111130;28;20413;-74
2021/03/25 14:03:37;;;;;;;13.93;12.43;;;;;;;;;;5110878;28;20473;-74
2021/03/25 14:06:03;;;;;;;13.23;11.90;;;;;;;;;;5108431;27;20809;-75
2021/03/25 14:08:29;;;;;;;11.43;10.43;;;;;;;;;;5077071;28;21218;-75
2021/03/25 14:10:56;;;;;;;13.00;11.63;;;;;;;;;;5104081;28;20414;-74
2021/03/25 14:13:22;;;;;;;11.50;10.40;;;;;;;;;;5090325;28;21157;-75
2021/03/25 14:15:49;;;;;;;11.30;10.30;;;;;;;;;;5103640;28;20435;-74
2021/03/25 14:18:17;;;;;;;12.67;10.67;;;;;;;;;;5111079;28;20420;-74
2021/03/25 14:20:44;;;;;;;11.40;10.03;;;;;;;;;;5097284;28;20471;-74
2021/03/25 14:23:11;;;;;;;11.80;10.60;;;;;;;;;;5110566;28;20816;-75
2021/03/25 14:25:40;;;;;;;11.90;10.60;;;;;;;;;;5110367;28;20434;-75
2021/03/25 14:28:06;;;;;;;12.77;11.50;;;;;;;;;;5099652;28;20593;-74
2021/03/25 14:30:33;;;;;;;12.63;11.23;;;;;;;;;;5090388;28;20416;-75
2021/03/25 14:33:00;;;;;;;12.37;11.10;;;;;;;;;;5090139;28;20413;-73
2021/03/25 14:35:27;;;;;;;12.23;11.13;;;;;;;;;;5090023;28;20443;-73